sensor_id;sensor_type;location;lat;lon;timestamp;P1;durP1;ratioP1;P2;durP2;ratioP2
50733;SDS011;36701;51.798;19.474;2022-10-17T00:01:00;27.40;;;16.37;;
50733;SDS011;36701;51.798;19.474;2022-10-17T00:03:33;25.30;;;16.33;;
50733;SDS011;36701;51.798;19.474;2022-10-17T00:10:00;29.17;;;15.30;;
50733;SDS011;36701;51.798;19.474;2022-10-17T00:12:27;22.50;;;15.05;;
50733;SDS011;36701;51.798;19.474;2022-10-17T00:14:53;26.05;;;15.63;;
50733;SDS011;36701;51.798;19.474;2022-10-17T00:17:20;28.40;;;15.80;;
50733;SDS011;36701;51.798;19.474;2022-10-17T00:19:46;28.08;;;16.33;;
50733;SDS011;36701;51.798;19.474;2022-10-17T00:22:13;33.88;;;16.50;;
50733;SDS011;36701;51.798;19.474;2022-10-17T00:24:39;29.55;;;15.40;;
50733;SDS011;36701;51.798;19.474;2022-10-17T00:27:06;31.08;;;15.80;;
50733;SDS011;36701;51.798;19.474;2022-10-17T00:29:32;28.23;;;15.73;;
50733;SDS011;36701;51.798;19.474;2022-10-17T00:31:59;29.12;;;15.52;;
50733;SDS011;36701;51.798;19.474;2022-10-17T00:34:27;27.05;;;15.80;;
50733;SDS011;36701;51.798;19.474;2022-10-17T00:36:56;25.90;;;14.93;;
50733;SDS011;36701;51.798;19.474;2022-10-17T00:39:23;25.73;;;15.13;;
50733;SDS011;36701;51.798;19.474;2022-10-17T00:41:50;27.02;;;15.20;;
50733;SDS011;36701;51.798;19.474;2022-10-17T00:47:03;31.80;;;15.55;;
50733;SDS011;36701;51.798;19.474;2022-10-17T00:49:35;27.73;;;16.67;;
50733;SDS011;36701;51.798;19.474;2022-10-17T00:52:05;29.12;;;16.62;;
50733;SDS011;36701;51.798;19.474;2022-10-17T00:54:39;38.35;;;15.80;;
50733;SDS011;36701;51.798;19.474;2022-10-17T00:57:11;30.75;;;16.17;;
50733;SDS011;36701;51.798;19.474;2022-10-17T00:59:38;30.67;;;15.00;;
50733;SDS011;36701;51.798;19.474;2022-10-17T01:02:08;23.70;;;15.05;;
50733;SDS011;36701;51.798;19.474;2022-10-17T01:04:39;28.77;;;16.10;;
50733;SDS011;36701;51.798;19.474;2022-10-17T01:07:07;21.73;;;15.18;;
50733;SDS011;36701;51.798;19.474;2022-10-17T01:09:35;27.25;;;15.05;;
50733;SDS011;36701;51.798;19.474;2022-10-17T01:20:58;27.13;;;15.90;;
50733;SDS011;36701;51.798;19.474;2022-10-17T01:26:32;26.45;;;14.50;;
50733;SDS011;36701;51.798;19.474;2022-10-17T01:29:18;26.67;;;16.17;;
50733;SDS011;36701;51.798;19.474;2022-10-17T01:31:55;30.42;;;16.50;;
50733;SDS011;36701;51.798;19.474;2022-10-17T01:34:30;27.55;;;15.88;;
50733;SDS011;36701;51.798;19.474;2022-10-17T01:37:01;27.52;;;15.10;;
50733;SDS011;36701;51.798;19.474;2022-10-17T01:39:41;31.48;;;17.12;;
50733;SDS011;36701;51.798;19.474;2022-10-17T01:42:13;28.55;;;15.88;;
50733;SDS011;36701;51.798;19.474;2022-10-17T01:47:27;28.73;;;16.45;;
50733;SDS011;36701;51.798;19.474;2022-10-17T01:49:58;28.08;;;16.58;;
50733;SDS011;36701;51.798;19.474;2022-10-17T01:55:19;29.85;;;14.20;;
50733;SDS011;36701;51.798;19.474;2022-10-17T01:57:56;26.48;;;16.08;;
50733;SDS011;36701;51.798;19.474;2022-10-17T02:00:28;29.83;;;15.73;;
50733;SDS011;36701;51.798;19.474;2022-10-17T02:02:58;23.65;;;14.87;;
50733;SDS011;36701;51.798;19.474;2022-10-17T02:05:30;32.92;;;16.35;;
50733;SDS011;36701;51.798;19.474;2022-10-17T02:07:58;27.60;;;15.45;;
50733;SDS011;36701;51.798;19.474;2022-10-17T02:10:47;31.33;;;16.50;;
50733;SDS011;36701;51.798;19.474;2022-10-17T02:13:34;37.88;;;16.62;;
50733;SDS011;36701;51.798;19.474;2022-10-17T02:19:14;28.33;;;15.35;;
50733;SDS011;36701;51.798;19.474;2022-10-17T02:24:46;29.00;;;15.50;;
50733;SDS011;36701;51.798;19.474;2022-10-17T02:27:16;32.38;;;15.45;;
50733;SDS011;36701;51.798;19.474;2022-10-17T02:30:12;23.73;;;14.15;;
50733;SDS011;36701;51.798;19.474;2022-10-17T02:32:49;33.30;;;15.40;;
50733;SDS011;36701;51.798;19.474;2022-10-17T02:35:24;25.95;;;15.80;;
50733;SDS011;36701;51.798;19.474;2022-10-17T02:37:54;26.90;;;14.40;;
50733;SDS011;36701;51.798;19.474;2022-10-17T02:40:22;26.33;;;16.05;;
50733;SDS011;36701;51.798;19.474;2022-10-17T02:42:50;26.48;;;16.70;;
50733;SDS011;36701;51.798;19.474;2022-10-17T02:45:19;27.08;;;15.18;;
50733;SDS011;36701;51.798;19.474;2022-10-17T02:47:54;26.40;;;15.80;;
50733;SDS011;36701;51.798;19.474;2022-10-17T02:50:41;27.15;;;14.55;;
50733;SDS011;36701;51.798;19.474;2022-10-17T02:53:24;26.42;;;15.23;;
50733;SDS011;36701;51.798;19.474;2022-10-17T02:55:59;27.33;;;14.38;;
50733;SDS011;36701;51.798;19.474;2022-10-17T02:58:32;26.70;;;14.93;;
50733;SDS011;36701;51.798;19.474;2022-10-17T03:01:01;25.77;;;15.20;;
50733;SDS011;36701;51.798;19.474;2022-10-17T03:03:30;25.10;;;15.20;;
50733;SDS011;36701;51.798;19.474;2022-10-17T03:05:59;29.45;;;16.35;;
50733;SDS011;36701;51.798;19.474;2022-10-17T03:08:25;35.13;;;14.63;;
50733;SDS011;36701;51.798;19.474;2022-10-17T03:10:57;27.75;;;15.02;;
50733;SDS011;36701;51.798;19.474;2022-10-17T03:13:26;28.60;;;14.15;;
50733;SDS011;36701;51.798;19.474;2022-10-17T03:15:57;29.45;;;15.38;;
50733;SDS011;36701;51.798;19.474;2022-10-17T03:18:24;29.42;;;14.75;;
50733;SDS011;36701;51.798;19.474;2022-10-17T03:20:51;27.55;;;15.65;;
50733;SDS011;36701;51.798;19.474;2022-10-17T03:23:18;25.05;;;15.80;;
50733;SDS011;36701;51.798;19.474;2022-10-17T03:25:44;26.67;;;14.95;;
50733;SDS011;36701;51.798;19.474;2022-10-17T03:28:13;23.15;;;14.07;;
50733;SDS011;36701;51.798;19.474;2022-10-17T03:30:39;29.10;;;14.07;;
50733;SDS011;36701;51.798;19.474;2022-10-17T03:33:06;30.80;;;14.82;;
50733;SDS011;36701;51.798;19.474;2022-10-17T03:35:32;28.40;;;16.45;;
50733;SDS011;36701;51.798;19.474;2022-10-17T03:37:59;28.75;;;15.13;;
50733;SDS011;36701;51.798;19.474;2022-10-17T03:40:26;27.02;;;14.98;;
50733;SDS011;36701;51.798;19.474;2022-10-17T03:42:53;24.48;;;13.55;;
50733;SDS011;36701;51.798;19.474;2022-10-17T03:45:20;31.52;;;15.20;;
50733;SDS011;36701;51.798;19.474;2022-10-17T03:47:46;26.48;;;13.48;;
50733;SDS011;36701;51.798;19.474;2022-10-17T03:50:13;27.52;;;13.77;;
50733;SDS011;36701;51.798;19.474;2022-10-17T03:52:44;22.08;;;15.15;;
50733;SDS011;36701;51.798;19.474;2022-10-17T03:55:12;28.17;;;14.27;;
50733;SDS011;36701;51.798;19.474;2022-10-17T03:57:40;22.33;;;12.30;;
50733;SDS011;36701;51.798;19.474;2022-10-17T04:00:06;26.92;;;13.90;;
50733;SDS011;36701;51.798;19.474;2022-10-17T04:02:40;26.23;;;13.25;;
50733;SDS011;36701;51.798;19.474;2022-10-17T04:05:07;23.58;;;13.10;;
50733;SDS011;36701;51.798;19.474;2022-10-17T04:07:33;24.50;;;14.63;;
50733;SDS011;36701;51.798;19.474;2022-10-17T04:10:03;21.85;;;13.38;;
50733;SDS011;36701;51.798;19.474;2022-10-17T04:12:31;26.27;;;14.57;;
50733;SDS011;36701;51.798;19.474;2022-10-17T04:14:57;27.90;;;14.15;;
50733;SDS011;36701;51.798;19.474;2022-10-17T04:17:24;28.27;;;14.85;;
50733;SDS011;36701;51.798;19.474;2022-10-17T04:19:52;21.58;;;14.15;;
50733;SDS011;36701;51.798;19.474;2022-10-17T04:22:18;24.42;;;14.15;;
50733;SDS011;36701;51.798;19.474;2022-10-17T04:24:45;24.33;;;12.82;;
50733;SDS011;36701;51.798;19.474;2022-10-17T04:27:12;28.48;;;15.23;;
50733;SDS011;36701;51.798;19.474;2022-10-17T04:29:39;20.77;;;13.13;;
50733;SDS011;36701;51.798;19.474;2022-10-17T04:32:06;20.42;;;13.27;;
50733;SDS011;36701;51.798;19.474;2022-10-17T04:34:33;27.15;;;14.93;;
50733;SDS011;36701;51.798;19.474;2022-10-17T04:37:00;24.37;;;14.35;;
50733;SDS011;36701;51.798;19.474;2022-10-17T04:39:26;34.20;;;16.98;;
50733;SDS011;36701;51.798;19.474;2022-10-17T04:41:54;28.05;;;15.38;;
50733;SDS011;36701;51.798;19.474;2022-10-17T04:44:21;24.45;;;13.10;;
50733;SDS011;36701;51.798;19.474;2022-10-17T04:46:49;33.92;;;13.68;;
50733;SDS011;36701;51.798;19.474;2022-10-17T04:49:16;22.98;;;13.60;;
50733;SDS011;36701;51.798;19.474;2022-10-17T04:51:43;21.40;;;12.68;;
50733;SDS011;36701;51.798;19.474;2022-10-17T04:54:09;19.60;;;13.02;;
50733;SDS011;36701;51.798;19.474;2022-10-17T04:56:44;25.92;;;12.73;;
50733;SDS011;36701;51.798;19.474;2022-10-17T04:59:12;24.60;;;12.82;;
50733;SDS011;36701;51.798;19.474;2022-10-17T05:01:39;23.75;;;12.98;;
50733;SDS011;36701;51.798;19.474;2022-10-17T05:04:05;22.17;;;13.60;;
50733;SDS011;36701;51.798;19.474;2022-10-17T05:06:32;21.92;;;12.73;;
50733;SDS011;36701;51.798;19.474;2022-10-17T05:09:02;19.08;;;12.23;;
50733;SDS011;36701;51.798;19.474;2022-10-17T05:11:29;23.85;;;13.62;;
50733;SDS011;36701;51.798;19.474;2022-10-17T05:13:59;21.30;;;13.48;;
50733;SDS011;36701;51.798;19.474;2022-10-17T05:16:33;22.62;;;13.32;;
50733;SDS011;36701;51.798;19.474;2022-10-17T05:19:05;25.60;;;12.43;;
50733;SDS011;36701;51.798;19.474;2022-10-17T05:21:35;29.45;;;13.77;;
50733;SDS011;36701;51.798;19.474;2022-10-17T05:24:04;21.05;;;11.52;;
50733;SDS011;36701;51.798;19.474;2022-10-17T05:26:32;21.33;;;11.80;;
50733;SDS011;36701;51.798;19.474;2022-10-17T05:29:04;21.53;;;11.73;;
50733;SDS011;36701;51.798;19.474;2022-10-17T05:31:31;24.35;;;12.93;;
50733;SDS011;36701;51.798;19.474;2022-10-17T05:34:01;26.85;;;12.73;;
50733;SDS011;36701;51.798;19.474;2022-10-17T05:36:29;24.15;;;13.50;;
50733;SDS011;36701;51.798;19.474;2022-10-17T05:38:57;23.58;;;11.60;;
50733;SDS011;36701;51.798;19.474;2022-10-17T05:41:25;27.10;;;11.90;;
50733;SDS011;36701;51.798;19.474;2022-10-17T05:43:52;16.00;;;11.05;;
50733;SDS011;36701;51.798;19.474;2022-10-17T05:46:18;29.25;;;11.55;;
50733;SDS011;36701;51.798;19.474;2022-10-17T05:48:45;18.33;;;11.38;;
50733;SDS011;36701;51.798;19.474;2022-10-17T05:51:11;18.45;;;12.18;;
50733;SDS011;36701;51.798;19.474;2022-10-17T05:53:39;29.23;;;13.90;;
50733;SDS011;36701;51.798;19.474;2022-10-17T05:56:09;20.95;;;12.35;;
50733;SDS011;36701;51.798;19.474;2022-10-17T05:58:41;34.20;;;13.40;;
50733;SDS011;36701;51.798;19.474;2022-10-17T06:01:14;27.92;;;12.15;;
50733;SDS011;36701;51.798;19.474;2022-10-17T06:03:40;30.58;;;12.50;;
50733;SDS011;36701;51.798;19.474;2022-10-17T06:06:08;21.98;;;13.25;;
50733;SDS011;36701;51.798;19.474;2022-10-17T06:08:39;30.20;;;12.15;;
50733;SDS011;36701;51.798;19.474;2022-10-17T06:11:06;20.75;;;11.30;;
50733;SDS011;36701;51.798;19.474;2022-10-17T06:13:33;21.02;;;11.52;;
50733;SDS011;36701;51.798;19.474;2022-10-17T06:16:00;25.98;;;12.40;;
50733;SDS011;36701;51.798;19.474;2022-10-17T06:18:28;23.92;;;11.60;;
50733;SDS011;36701;51.798;19.474;2022-10-17T06:21:00;23.02;;;11.55;;
50733;SDS011;36701;51.798;19.474;2022-10-17T06:23:32;22.30;;;11.70;;
50733;SDS011;36701;51.798;19.474;2022-10-17T06:26:00;23.67;;;11.32;;
50733;SDS011;36701;51.798;19.474;2022-10-17T06:28:28;22.48;;;12.27;;
50733;SDS011;36701;51.798;19.474;2022-10-17T06:30:56;18.37;;;11.55;;
50733;SDS011;36701;51.798;19.474;2022-10-17T06:33:22;27.35;;;11.73;;
50733;SDS011;36701;51.798;19.474;2022-10-17T06:35:50;21.02;;;11.07;;
50733;SDS011;36701;51.798;19.474;2022-10-17T06:38:19;23.00;;;11.88;;
50733;SDS011;36701;51.798;19.474;2022-10-17T06:40:49;33.30;;;11.80;;
50733;SDS011;36701;51.798;19.474;2022-10-17T06:43:15;28.38;;;11.45;;
50733;SDS011;36701;51.798;19.474;2022-10-17T06:45:46;16.02;;;10.25;;
50733;SDS011;36701;51.798;19.474;2022-10-17T06:48:14;19.80;;;10.80;;
50733;SDS011;36701;51.798;19.474;2022-10-17T06:50:41;21.77;;;12.00;;
50733;SDS011;36701;51.798;19.474;2022-10-17T06:53:08;23.42;;;12.65;;
50733;SDS011;36701;51.798;19.474;2022-10-17T06:55:36;16.20;;;9.90;;
50733;SDS011;36701;51.798;19.474;2022-10-17T06:58:03;17.67;;;11.23;;
50733;SDS011;36701;51.798;19.474;2022-10-17T07:00:32;24.08;;;12.00;;
50733;SDS011;36701;51.798;19.474;2022-10-17T07:02:58;36.78;;;11.68;;
50733;SDS011;36701;51.798;19.474;2022-10-17T07:05:24;23.45;;;10.68;;
50733;SDS011;36701;51.798;19.474;2022-10-17T07:07:51;27.83;;;10.98;;
50733;SDS011;36701;51.798;19.474;2022-10-17T07:10:18;31.40;;;11.48;;
50733;SDS011;36701;51.798;19.474;2022-10-17T07:12:44;22.33;;;11.55;;
50733;SDS011;36701;51.798;19.474;2022-10-17T07:15:11;26.92;;;12.02;;
50733;SDS011;36701;51.798;19.474;2022-10-17T07:17:38;23.90;;;11.48;;
50733;SDS011;36701;51.798;19.474;2022-10-17T07:20:05;21.85;;;12.02;;
50733;SDS011;36701;51.798;19.474;2022-10-17T07:22:34;29.83;;;11.77;;
50733;SDS011;36701;51.798;19.474;2022-10-17T07:25:01;24.85;;;11.40;;
50733;SDS011;36701;51.798;19.474;2022-10-17T07:27:29;21.23;;;12.23;;
50733;SDS011;36701;51.798;19.474;2022-10-17T07:29:57;20.42;;;11.73;;
50733;SDS011;36701;51.798;19.474;2022-10-17T07:32:25;18.65;;;11.43;;
50733;SDS011;36701;51.798;19.474;2022-10-17T07:34:51;20.92;;;11.18;;
50733;SDS011;36701;51.798;19.474;2022-10-17T07:37:19;24.85;;;11.18;;
50733;SDS011;36701;51.798;19.474;2022-10-17T07:39:45;19.40;;;11.10;;
50733;SDS011;36701;51.798;19.474;2022-10-17T07:42:12;21.37;;;11.27;;
50733;SDS011;36701;51.798;19.474;2022-10-17T07:44:40;20.10;;;11.15;;
50733;SDS011;36701;51.798;19.474;2022-10-17T07:47:07;29.15;;;11.27;;
50733;SDS011;36701;51.798;19.474;2022-10-17T07:49:35;22.67;;;10.30;;
50733;SDS011;36701;51.798;19.474;2022-10-17T07:52:13;16.95;;;10.75;;
50733;SDS011;36701;51.798;19.474;2022-10-17T07:57:13;31.77;;;12.40;;
50733;SDS011;36701;51.798;19.474;2022-10-17T07:59:40;17.87;;;10.90;;
50733;SDS011;36701;51.798;19.474;2022-10-17T08:02:20;24.52;;;10.68;;
50733;SDS011;36701;51.798;19.474;2022-10-17T08:07:15;21.30;;;10.98;;
50733;SDS011;36701;51.798;19.474;2022-10-17T08:09:42;22.87;;;12.50;;
50733;SDS011;36701;51.798;19.474;2022-10-17T08:12:09;27.83;;;11.73;;
50733;SDS011;36701;51.798;19.474;2022-10-17T08:14:36;30.35;;;12.20;;
50733;SDS011;36701;51.798;19.474;2022-10-17T08:17:04;20.37;;;10.50;;
50733;SDS011;36701;51.798;19.474;2022-10-17T08:19:31;17.62;;;10.07;;
50733;SDS011;36701;51.798;19.474;2022-10-17T08:22:04;22.10;;;10.18;;
50733;SDS011;36701;51.798;19.474;2022-10-17T08:24:31;25.15;;;10.07;;
50733;SDS011;36701;51.798;19.474;2022-10-17T08:26:57;25.62;;;10.63;;
50733;SDS011;36701;51.798;19.474;2022-10-17T08:29:25;22.37;;;11.02;;
50733;SDS011;36701;51.798;19.474;2022-10-17T08:31:52;22.48;;;11.27;;
50733;SDS011;36701;51.798;19.474;2022-10-17T08:34:19;20.85;;;10.32;;
50733;SDS011;36701;51.798;19.474;2022-10-17T08:36:46;18.80;;;10.68;;
50733;SDS011;36701;51.798;19.474;2022-10-17T08:39:12;19.20;;;10.43;;
50733;SDS011;36701;51.798;19.474;2022-10-17T08:47:26;21.58;;;11.12;;
50733;SDS011;36701;51.798;19.474;2022-10-17T08:50:02;22.67;;;10.52;;
50733;SDS011;36701;51.798;19.474;2022-10-17T08:52:35;22.13;;;10.88;;
50733;SDS011;36701;51.798;19.474;2022-10-17T08:55:17;26.40;;;10.23;;
50733;SDS011;36701;51.798;19.474;2022-10-17T08:57:52;23.48;;;11.15;;
50733;SDS011;36701;51.798;19.474;2022-10-17T09:00:20;36.72;;;11.10;;
50733;SDS011;36701;51.798;19.474;2022-10-17T09:03:00;23.15;;;10.80;;
50733;SDS011;36701;51.798;19.474;2022-10-17T09:11:03;16.08;;;9.80;;
50733;SDS011;36701;51.798;19.474;2022-10-17T09:19:02;26.17;;;10.05;;
50733;SDS011;36701;51.798;19.474;2022-10-17T09:21:47;22.75;;;12.32;;
50733;SDS011;36701;51.798;19.474;2022-10-17T09:24:54;14.57;;;10.10;;
50733;SDS011;36701;51.798;19.474;2022-10-17T09:27:39;15.73;;;9.77;;
50733;SDS011;36701;51.798;19.474;2022-10-17T09:30:14;22.20;;;10.15;;
50733;SDS011;36701;51.798;19.474;2022-10-17T09:32:47;22.45;;;10.20;;
50733;SDS011;36701;51.798;19.474;2022-10-17T09:35:15;15.20;;;10.25;;
50733;SDS011;36701;51.798;19.474;2022-10-17T09:37:43;20.25;;;11.70;;
50733;SDS011;36701;51.798;19.474;2022-10-17T09:40:14;17.20;;;10.70;;
50733;SDS011;36701;51.798;19.474;2022-10-17T09:42:49;29.67;;;11.60;;
50733;SDS011;36701;51.798;19.474;2022-10-17T09:45:17;20.42;;;11.63;;
50733;SDS011;36701;51.798;19.474;2022-10-17T09:47:54;23.83;;;10.98;;
50733;SDS011;36701;51.798;19.474;2022-10-17T09:50:30;23.70;;;11.77;;
50733;SDS011;36701;51.798;19.474;2022-10-17T09:53:02;16.10;;;10.38;;
50733;SDS011;36701;51.798;19.474;2022-10-17T09:55:44;17.50;;;9.50;;
50733;SDS011;36701;51.798;19.474;2022-10-17T09:58:13;23.55;;;11.68;;
50733;SDS011;36701;51.798;19.474;2022-10-17T10:00:42;17.98;;;11.00;;
50733;SDS011;36701;51.798;19.474;2022-10-17T10:08:31;19.55;;;10.98;;
50733;SDS011;36701;51.798;19.474;2022-10-17T10:11:06;28.35;;;11.38;;
50733;SDS011;36701;51.798;19.474;2022-10-17T10:13:36;18.45;;;9.93;;
50733;SDS011;36701;51.798;19.474;2022-10-17T10:16:14;22.45;;;10.15;;
50733;SDS011;36701;51.798;19.474;2022-10-17T10:18:41;21.25;;;10.73;;
50733;SDS011;36701;51.798;19.474;2022-10-17T10:21:12;16.37;;;9.50;;
50733;SDS011;36701;51.798;19.474;2022-10-17T10:26:30;22.17;;;10.02;;
50733;SDS011;36701;51.798;19.474;2022-10-17T10:29:05;25.20;;;10.75;;
50733;SDS011;36701;51.798;19.474;2022-10-17T10:34:23;14.45;;;10.55;;
50733;SDS011;36701;51.798;19.474;2022-10-17T10:36:54;16.87;;;10.00;;
50733;SDS011;36701;51.798;19.474;2022-10-17T10:39:24;14.63;;;9.30;;
50733;SDS011;36701;51.798;19.474;2022-10-17T10:41:52;20.10;;;9.88;;
50733;SDS011;36701;51.798;19.474;2022-10-17T10:44:20;16.17;;;9.60;;
50733;SDS011;36701;51.798;19.474;2022-10-17T10:47:07;16.00;;;9.35;;
50733;SDS011;36701;51.798;19.474;2022-10-17T10:49:41;13.82;;;9.65;;
50733;SDS011;36701;51.798;19.474;2022-10-17T10:52:10;17.48;;;9.75;;
50733;SDS011;36701;51.798;19.474;2022-10-17T10:54:46;16.77;;;9.40;;
50733;SDS011;36701;51.798;19.474;2022-10-17T10:57:23;20.15;;;9.73;;
50733;SDS011;36701;51.798;19.474;2022-10-17T11:00:05;22.65;;;9.70;;
50733;SDS011;36701;51.798;19.474;2022-10-17T11:08:09;22.83;;;8.52;;
50733;SDS011;36701;51.798;19.474;2022-10-17T11:10:54;15.60;;;10.15;;
50733;SDS011;36701;51.798;19.474;2022-10-17T11:13:30;15.10;;;9.57;;
50733;SDS011;36701;51.798;19.474;2022-10-17T11:16:22;11.98;;;9.18;;
50733;SDS011;36701;51.798;19.474;2022-10-17T11:19:08;13.62;;;9.35;;
50733;SDS011;36701;51.798;19.474;2022-10-17T11:24:33;17.77;;;8.50;;
50733;SDS011;36701;51.798;19.474;2022-10-17T11:27:28;22.85;;;9.85;;
50733;SDS011;36701;51.798;19.474;2022-10-17T11:29:56;24.42;;;10.25;;
50733;SDS011;36701;51.798;19.474;2022-10-17T11:32:26;15.48;;;9.15;;
50733;SDS011;36701;51.798;19.474;2022-10-17T11:35:06;18.40;;;9.57;;
50733;SDS011;36701;51.798;19.474;2022-10-17T11:37:45;14.57;;;9.98;;
50733;SDS011;36701;51.798;19.474;2022-10-17T11:40:17;14.70;;;9.13;;
50733;SDS011;36701;51.798;19.474;2022-10-17T11:42:52;17.77;;;10.80;;
50733;SDS011;36701;51.798;19.474;2022-10-17T11:45:21;19.37;;;10.27;;
50733;SDS011;36701;51.798;19.474;2022-10-17T11:47:52;15.65;;;9.82;;
50733;SDS011;36701;51.798;19.474;2022-10-17T11:50:36;12.90;;;10.25;;
50733;SDS011;36701;51.798;19.474;2022-10-17T11:53:12;28.15;;;9.60;;
50733;SDS011;36701;51.798;19.474;2022-10-17T11:55:41;12.90;;;8.50;;
50733;SDS011;36701;51.798;19.474;2022-10-17T12:01:28;27.92;;;9.55;;
50733;SDS011;36701;51.798;19.474;2022-10-17T12:04:04;23.80;;;8.80;;
50733;SDS011;36701;51.798;19.474;2022-10-17T12:06:45;14.20;;;8.48;;
50733;SDS011;36701;51.798;19.474;2022-10-17T12:11:56;18.80;;;8.73;;
50733;SDS011;36701;51.798;19.474;2022-10-17T12:17:27;16.23;;;8.55;;
50733;SDS011;36701;51.798;19.474;2022-10-17T12:25:47;18.95;;;7.87;;
50733;SDS011;36701;51.798;19.474;2022-10-17T12:31:05;11.80;;;8.05;;
50733;SDS011;36701;51.798;19.474;2022-10-17T12:33:46;20.10;;;9.43;;
50733;SDS011;36701;51.798;19.474;2022-10-17T12:38:43;18.42;;;8.05;;
50733;SDS011;36701;51.798;19.474;2022-10-17T12:41:10;15.20;;;9.00;;
50733;SDS011;36701;51.798;19.474;2022-10-17T12:43:45;22.73;;;9.60;;
50733;SDS011;36701;51.798;19.474;2022-10-17T12:49:36;16.48;;;8.48;;
50733;SDS011;36701;51.798;19.474;2022-10-17T12:54:59;10.27;;;7.22;;
50733;SDS011;36701;51.798;19.474;2022-10-17T12:57:32;11.20;;;8.00;;
50733;SDS011;36701;51.798;19.474;2022-10-17T13:00:05;13.20;;;8.13;;
50733;SDS011;36701;51.798;19.474;2022-10-17T13:02:44;16.35;;;8.65;;
50733;SDS011;36701;51.798;19.474;2022-10-17T13:05:30;19.30;;;7.72;;
50733;SDS011;36701;51.798;19.474;2022-10-17T13:08:02;14.57;;;8.35;;
50733;SDS011;36701;51.798;19.474;2022-10-17T13:10:32;15.57;;;8.43;;
50733;SDS011;36701;51.798;19.474;2022-10-17T13:15:31;16.58;;;8.35;;
50733;SDS011;36701;51.798;19.474;2022-10-17T13:18:00;15.23;;;8.15;;
50733;SDS011;36701;51.798;19.474;2022-10-17T13:20:28;10.98;;;7.47;;
50733;SDS011;36701;51.798;19.474;2022-10-17T13:22:56;15.60;;;7.47;;
50733;SDS011;36701;51.798;19.474;2022-10-17T13:25:23;17.75;;;8.50;;
50733;SDS011;36701;51.798;19.474;2022-10-17T13:28:02;16.40;;;7.80;;
50733;SDS011;36701;51.798;19.474;2022-10-17T13:30:34;23.92;;;8.80;;
50733;SDS011;36701;51.798;19.474;2022-10-17T13:33:02;14.45;;;7.68;;
50733;SDS011;36701;51.798;19.474;2022-10-17T13:35:29;16.60;;;9.45;;
50733;SDS011;36701;51.798;19.474;2022-10-17T13:38:04;23.73;;;8.45;;
50733;SDS011;36701;51.798;19.474;2022-10-17T13:40:39;13.18;;;8.48;;
50733;SDS011;36701;51.798;19.474;2022-10-17T13:43:11;13.82;;;10.10;;
50733;SDS011;36701;51.798;19.474;2022-10-17T13:45:51;16.83;;;9.43;;
50733;SDS011;36701;51.798;19.474;2022-10-17T13:48:22;16.70;;;7.10;;
50733;SDS011;36701;51.798;19.474;2022-10-17T13:50:55;19.55;;;8.68;;
50733;SDS011;36701;51.798;19.474;2022-10-17T13:53:32;13.32;;;7.97;;
50733;SDS011;36701;51.798;19.474;2022-10-17T13:56:02;17.87;;;8.57;;
50733;SDS011;36701;51.798;19.474;2022-10-17T14:01:11;22.65;;;8.63;;
50733;SDS011;36701;51.798;19.474;2022-10-17T14:03:40;12.77;;;7.70;;
50733;SDS011;36701;51.798;19.474;2022-10-17T14:11:26;19.02;;;8.13;;
50733;SDS011;36701;51.798;19.474;2022-10-17T14:13:54;13.43;;;8.07;;
50733;SDS011;36701;51.798;19.474;2022-10-17T14:16:22;17.50;;;9.32;;
50733;SDS011;36701;51.798;19.474;2022-10-17T14:18:50;22.20;;;9.35;;
50733;SDS011;36701;51.798;19.474;2022-10-17T14:21:19;24.45;;;9.88;;
50733;SDS011;36701;51.798;19.474;2022-10-17T14:23:47;17.90;;;9.32;;
50733;SDS011;36701;51.798;19.474;2022-10-17T14:26:19;15.60;;;9.63;;
50733;SDS011;36701;51.798;19.474;2022-10-17T14:29:01;18.77;;;9.82;;
50733;SDS011;36701;51.798;19.474;2022-10-17T14:31:33;20.60;;;9.98;;
50733;SDS011;36701;51.798;19.474;2022-10-17T14:34:02;17.40;;;8.88;;
50733;SDS011;36701;51.798;19.474;2022-10-17T14:36:34;26.00;;;10.07;;
50733;SDS011;36701;51.798;19.474;2022-10-17T14:39:05;22.15;;;8.70;;
50733;SDS011;36701;51.798;19.474;2022-10-17T14:41:34;31.40;;;8.98;;
50733;SDS011;36701;51.798;19.474;2022-10-17T14:44:04;23.12;;;8.82;;
50733;SDS011;36701;51.798;19.474;2022-10-17T14:46:33;25.42;;;9.68;;
50733;SDS011;36701;51.798;19.474;2022-10-17T14:49:03;18.70;;;10.13;;
50733;SDS011;36701;51.798;19.474;2022-10-17T14:52:07;15.50;;;9.30;;
50733;SDS011;36701;51.798;19.474;2022-10-17T14:54:37;15.82;;;9.20;;
50733;SDS011;36701;51.798;19.474;2022-10-17T14:57:13;14.95;;;8.73;;
50733;SDS011;36701;51.798;19.474;2022-10-17T14:59:43;18.12;;;10.00;;
50733;SDS011;36701;51.798;19.474;2022-10-17T15:02:10;24.67;;;9.85;;
50733;SDS011;36701;51.798;19.474;2022-10-17T15:04:37;16.00;;;9.23;;
50733;SDS011;36701;51.798;19.474;2022-10-17T15:07:03;17.33;;;8.32;;
50733;SDS011;36701;51.798;19.474;2022-10-17T15:09:30;16.98;;;8.90;;
50733;SDS011;36701;51.798;19.474;2022-10-17T15:12:00;17.98;;;8.85;;
50733;SDS011;36701;51.798;19.474;2022-10-17T15:14:27;16.85;;;9.15;;
50733;SDS011;36701;51.798;19.474;2022-10-17T15:16:54;18.05;;;9.68;;
50733;SDS011;36701;51.798;19.474;2022-10-17T15:19:20;20.08;;;8.02;;
50733;SDS011;36701;51.798;19.474;2022-10-17T15:21:47;20.25;;;9.40;;
50733;SDS011;36701;51.798;19.474;2022-10-17T15:24:13;20.65;;;9.15;;
50733;SDS011;36701;51.798;19.474;2022-10-17T15:26:40;20.48;;;8.40;;
50733;SDS011;36701;51.798;19.474;2022-10-17T15:29:07;17.67;;;9.05;;
50733;SDS011;36701;51.798;19.474;2022-10-17T15:31:39;18.87;;;9.32;;
50733;SDS011;36701;51.798;19.474;2022-10-17T15:34:06;23.98;;;9.20;;
50733;SDS011;36701;51.798;19.474;2022-10-17T15:36:34;18.60;;;8.32;;
50733;SDS011;36701;51.798;19.474;2022-10-17T15:39:05;17.60;;;9.18;;
50733;SDS011;36701;51.798;19.474;2022-10-17T15:41:32;17.67;;;8.73;;
50733;SDS011;36701;51.798;19.474;2022-10-17T15:43:59;14.48;;;9.98;;
50733;SDS011;36701;51.798;19.474;2022-10-17T15:46:26;20.83;;;10.32;;
50733;SDS011;36701;51.798;19.474;2022-10-17T15:48:55;18.15;;;10.23;;
50733;SDS011;36701;51.798;19.474;2022-10-17T15:51:22;16.20;;;8.68;;
50733;SDS011;36701;51.798;19.474;2022-10-17T15:53:49;19.85;;;10.82;;
50733;SDS011;36701;51.798;19.474;2022-10-17T15:56:25;21.65;;;9.90;;
50733;SDS011;36701;51.798;19.474;2022-10-17T15:58:53;20.20;;;8.98;;
50733;SDS011;36701;51.798;19.474;2022-10-17T16:01:21;22.37;;;9.07;;
50733;SDS011;36701;51.798;19.474;2022-10-17T16:03:53;24.00;;;10.25;;
50733;SDS011;36701;51.798;19.474;2022-10-17T16:06:20;19.62;;;9.73;;
50733;SDS011;36701;51.798;19.474;2022-10-17T16:08:48;22.13;;;10.07;;
50733;SDS011;36701;51.798;19.474;2022-10-17T16:14:05;18.33;;;9.35;;
50733;SDS011;36701;51.798;19.474;2022-10-17T16:16:35;23.67;;;10.57;;
50733;SDS011;36701;51.798;19.474;2022-10-17T16:19:02;15.57;;;9.30;;
50733;SDS011;36701;51.798;19.474;2022-10-17T16:21:29;21.50;;;9.98;;
50733;SDS011;36701;51.798;19.474;2022-10-17T16:23:58;17.85;;;9.57;;